createdAt,value
2022-09-15T00:00:16.538Z,87.51
2022-09-15T00:03:22.143Z,87.75
2022-09-15T00:06:25.809Z,87.78
2022-09-15T00:09:31.223Z,87.93
2022-09-15T00:12:35.707Z,88.06
2022-09-15T00:15:39.382Z,88.17
2022-09-15T00:18:43.795Z,88.17
2022-09-15T00:21:47.573Z,88.45
2022-09-15T00:24:52.915Z,88.56
2022-09-15T00:27:56.727Z,88.55
2022-09-15T00:31:00.339Z,88.75
2022-09-15T00:34:05.103Z,88.81
2022-09-15T00:37:08.927Z,89.11
2022-09-15T00:40:13.959Z,89.37
2022-09-15T00:43:20.328Z,89.38
2022-09-15T00:46:28.761Z,89.43
2022-09-15T00:49:36.818Z,89.64
2022-09-15T00:52:48.072Z,89.77
2022-09-15T00:55:54.164Z,90.09
2022-09-15T00:59:04.475Z,90.10
2022-09-15T01:02:17.555Z,90.18
2022-09-15T01:05:25.120Z,90.20
2022-09-15T01:08:40.792Z,90.42
2022-09-15T01:11:45.710Z,90.66
2022-09-15T01:14:49.286Z,90.73
2022-09-15T01:18:13.789Z,91.02
2022-09-15T01:21:32.143Z,91.02
2022-09-15T01:24:47.073Z,91.27
2022-09-15T01:28:34.800Z,91.39
2022-09-15T01:32:01.052Z,91.62
2022-09-15T01:35:22.191Z,91.99
2022-09-15T01:38:40.818Z,91.83
2022-09-15T01:41:54.199Z,91.88
2022-09-15T01:45:05.254Z,92.07
2022-09-15T01:48:11.959Z,92.17
2022-09-15T01:51:16.872Z,92.30
2022-09-15T01:54:26.266Z,92.31
2022-09-15T01:57:30.187Z,92.47
2022-09-15T02:00:38.999Z,92.53
2022-09-15T02:03:54.919Z,92.67
2022-09-15T02:07:07.457Z,92.73
2022-09-15T02:10:22.427Z,92.84
2022-09-15T02:13:38.216Z,93.11
2022-09-15T02:16:49.993Z,93.37
2022-09-15T02:20:04.607Z,93.63
2022-09-15T02:23:18.846Z,93.88
2022-09-15T02:26:28.229Z,94.00
2022-09-15T02:29:36.441Z,94.20
2022-09-15T02:32:48.630Z,94.43
2022-09-15T02:35:54.460Z,94.48
2022-09-15T02:39:10.399Z,94.79
2022-09-15T02:42:14.070Z,94.93
2022-09-15T02:45:17.635Z,95.04
2022-09-15T02:48:21.289Z,95.28
2022-09-15T02:51:26.455Z,95.45
2022-09-15T02:54:30.091Z,95.42
2022-09-15T02:57:33.655Z,95.38
2022-09-15T03:00:38.934Z,95.44
2022-09-15T03:03:43.955Z,95.57
2022-09-15T03:06:48.879Z,95.71
2022-09-15T03:09:52.452Z,95.59
2022-09-15T03:12:56.585Z,95.58
2022-09-15T03:16:00.183Z,95.61
2022-09-15T03:19:04.280Z,95.57
2022-09-15T03:22:09.545Z,95.75
2022-09-15T03:25:13.506Z,95.79
2022-09-15T03:28:17.051Z,95.90
2022-09-15T03:31:20.931Z,95.84
2022-09-15T03:34:24.751Z,95.87
2022-09-15T03:37:29.972Z,95.74
2022-09-15T03:40:33.810Z,95.90
2022-09-15T03:43:38.862Z,95.98
2022-09-15T03:46:42.415Z,95.84
2022-09-15T03:49:46.035Z,96.04
2022-09-15T03:52:53.563Z,95.95
2022-09-15T03:56:10.687Z,95.98
2022-09-15T03:59:14.291Z,96.15
2022-09-15T04:02:17.924Z,96.29
2022-09-15T04:05:21.836Z,96.16
2022-09-15T04:08:26.918Z,96.06
2022-09-15T04:11:31.335Z,96.09
2022-09-15T04:14:34.919Z,96.23
2022-09-15T04:17:38.731Z,96.18
2022-09-15T04:20:42.542Z,95.96
2022-09-15T04:23:49.375Z,95.99
2022-09-15T04:26:53.123Z,95.93
2022-09-15T04:29:56.816Z,96.01
2022-09-15T04:33:00.446Z,95.81
2022-09-15T04:36:06.680Z,95.95
2022-09-15T04:39:12.837Z,95.90
2022-09-15T04:42:16.876Z,95.89
2022-09-15T04:45:20.475Z,95.59
2022-09-15T04:48:25.313Z,95.50
2022-09-15T04:51:29.026Z,95.33
2022-09-15T04:54:35.809Z,95.31
2022-09-15T04:57:39.386Z,95.21
2022-09-15T05:00:44.305Z,95.25
2022-09-15T05:03:48.911Z,95.43
2022-09-15T05:06:52.749Z,95.39
2022-09-15T05:09:57.722Z,95.57
2022-09-15T05:13:01.291Z,95.39
2022-09-15T05:16:12.021Z,95.28
2022-09-15T05:19:15.762Z,95.46
2022-09-15T05:22:19.341Z,95.17
2022-09-15T05:25:24.379Z,95.16
2022-09-15T05:28:29.479Z,95.26
2022-09-15T05:31:35.296Z,95.23
2022-09-15T05:34:38.977Z,94.83
2022-09-15T05:37:42.539Z,94.66
2022-09-15T05:40:47.806Z,94.69
2022-09-15T05:43:52.494Z,94.55
2022-09-15T05:46:56.185Z,94.21
2022-09-15T05:49:59.838Z,93.85
2022-09-15T05:53:03.551Z,93.62
2022-09-15T05:56:13.285Z,93.34
2022-09-15T05:59:17.164Z,92.78
2022-09-15T06:02:20.799Z,92.34
2022-09-15T06:05:24.447Z,91.86
2022-09-15T06:08:32.359Z,91.70
2022-09-15T06:11:37.348Z,91.11
2022-09-15T06:14:43.223Z,90.33
2022-09-15T06:17:46.764Z,89.87
2022-09-15T06:20:50.455Z,89.44
2022-09-15T06:23:56.041Z,88.88
2022-09-15T06:27:01.923Z,87.81
2022-09-15T06:30:06.303Z,86.89
2022-09-15T06:33:09.867Z,85.61
2022-09-15T06:36:14.307Z,84.90
2022-09-15T06:39:17.804Z,83.80
2022-09-15T06:42:22.744Z,83.10
2022-09-15T06:45:26.593Z,82.03
2022-09-15T06:48:30.320Z,81.43
2022-09-15T06:51:35.662Z,80.92
2022-09-15T06:54:39.192Z,80.76
2022-09-15T06:57:44.146Z,80.86
2022-09-15T07:00:47.951Z,80.54
2022-09-15T07:03:52.141Z,80.18
2022-09-15T07:06:55.771Z,79.83
2022-09-15T07:10:01.130Z,79.88
2022-09-15T07:13:06.208Z,79.39
2022-09-15T07:16:13.013Z,78.24
2022-09-15T07:19:16.884Z,76.90
2022-09-15T07:22:20.575Z,75.64
2022-09-15T07:25:24.254Z,75.28
2022-09-15T07:28:29.332Z,74.30
2022-09-15T07:31:36.427Z,73.42
2022-09-15T07:34:40.015Z,73.34
2022-09-15T07:37:44.732Z,72.06
2022-09-15T07:40:49.243Z,72.23
2022-09-15T07:43:56.375Z,72.15
2022-09-15T07:46:59.988Z,71.68
2022-09-15T07:50:03.648Z,71.96
2022-09-15T07:53:07.436Z,71.71
2022-09-15T07:56:11.523Z,71.03
2022-09-15T07:59:16.654Z,71.10
2022-09-15T08:02:22.443Z,70.98
2022-09-15T08:05:28.875Z,70.75
2022-09-15T08:08:32.523Z,70.40
2022-09-15T08:11:36.130Z,70.48
2022-09-15T08:14:41.112Z,70.29
2022-09-15T08:17:44.774Z,69.74
2022-09-15T08:20:48.425Z,69.29
2022-09-15T08:23:53.748Z,67.92
2022-09-15T08:26:57.516Z,67.46
2022-09-15T08:30:02.492Z,66.33
2022-09-15T08:33:06.141Z,65.85
2022-09-15T08:36:12.002Z,65.71
2022-09-15T08:39:15.655Z,65.78
2022-09-15T08:42:24.139Z,65.51
2022-09-15T08:45:38.818Z,66.89
2022-09-15T08:48:50.483Z,67.67
2022-09-15T08:51:59.375Z,67.27
2022-09-15T08:55:14.430Z,67.64
2022-09-15T08:58:21.427Z,67.67
2022-09-15T09:01:50.180Z,67.29
2022-09-15T09:05:16.493Z,67.78
2022-09-15T09:09:16.569Z,69.34
2022-09-15T09:12:42.746Z,69.21
2022-09-15T09:16:05.600Z,69.49
2022-09-15T09:19:58.875Z,69.61
2022-09-15T09:23:08.978Z,70.40
2022-09-15T09:26:15.733Z,70.62
2022-09-15T09:29:21.887Z,70.51
2022-09-15T09:32:33.686Z,70.77
2022-09-15T09:35:46.990Z,70.85
2022-09-15T09:38:51.918Z,71.15
2022-09-15T09:41:56.962Z,71.64
2022-09-15T09:45:00.675Z,70.24
2022-09-15T09:48:16.362Z,70.63
2022-09-15T09:51:38.052Z,69.11
2022-09-15T09:54:42.346Z,68.39
2022-09-15T09:57:45.955Z,67.67
2022-09-15T10:00:50.651Z,66.52
2022-09-15T10:04:18.992Z,65.96
2022-09-15T10:07:27.718Z,64.46
2022-09-15T10:10:32.444Z,62.97
2022-09-15T10:13:37.854Z,61.08
2022-09-15T10:16:42.118Z,61.38
2022-09-15T10:19:49.604Z,61.20
2022-09-15T10:23:05.136Z,60.71
2022-09-15T10:26:35.298Z,60.37
2022-09-15T10:29:40.353Z,60.05
2022-09-15T10:32:44.622Z,59.80
2022-09-15T10:35:48.249Z,59.32
2022-09-15T10:39:08.300Z,58.91
2022-09-15T10:42:24.157Z,57.44
2022-09-15T10:45:35.061Z,57.70
2022-09-15T10:48:59.467Z,57.91
2022-09-15T10:52:18.232Z,57.62
2022-09-15T10:55:52.596Z,58.63
2022-09-15T10:59:33.172Z,63.12
2022-09-15T11:03:27.556Z,70.18
2022-09-15T11:06:41.758Z,73.39
2022-09-15T11:09:52.126Z,76.76
2022-09-15T11:13:09.742Z,78.80
2022-09-15T11:16:30.925Z,80.58
2022-09-15T11:20:15.180Z,82.42
2022-09-15T11:23:28.571Z,83.75
2022-09-15T11:26:40.221Z,84.76
2022-09-15T11:30:04.026Z,85.30
2022-09-15T11:33:19.291Z,85.05
2022-09-15T11:36:32.363Z,85.59
2022-09-15T11:39:47.735Z,85.72
2022-09-15T11:42:58.711Z,85.77
2022-09-15T11:46:12.676Z,86.05
2022-09-15T11:49:22.630Z,86.00
2022-09-15T11:52:56.112Z,85.57
2022-09-15T11:56:14.515Z,83.83
2022-09-15T11:59:28.966Z,82.08
2022-09-15T12:02:45.266Z,81.95
2022-09-15T12:05:57.218Z,79.51
2022-09-15T12:09:05.814Z,77.73
2022-09-15T12:12:16.386Z,76.67
2022-09-15T12:15:27.528Z,73.79
2022-09-15T12:18:43.836Z,73.01
2022-09-15T12:21:59.007Z,73.56
2022-09-15T12:25:12.595Z,75.63
2022-09-15T12:28:42.539Z,77.04
2022-09-15T12:31:47.384Z,76.58
2022-09-15T12:35:02.564Z,75.51
2022-09-15T12:38:06.257Z,73.97
2022-09-15T12:41:13.719Z,72.93
2022-09-15T12:44:33.260Z,71.08
2022-09-15T12:47:41.551Z,70.12
2022-09-15T12:50:57.327Z,68.55
2022-09-15T12:54:07.507Z,68.40
2022-09-15T12:57:26.128Z,69.28
2022-09-15T13:00:54.844Z,70.87
2022-09-15T13:04:29.144Z,72.24
2022-09-15T13:07:55.079Z,72.81
2022-09-15T13:11:05.973Z,73.46
2022-09-15T13:14:26.086Z,74.33
2022-09-15T13:17:31.419Z,74.64
2022-09-15T13:20:42.203Z,75.54
2022-09-15T13:23:52.597Z,75.65
2022-09-15T13:26:57.840Z,75.49
2022-09-15T13:30:22.742Z,74.18
2022-09-15T13:38:08.331Z,72.36
2022-09-15T13:41:57.893Z,70.01
2022-09-15T13:45:35.719Z,70.04
2022-09-15T13:49:08.215Z,75.46
2022-09-15T13:52:28.181Z,78.35
2022-09-15T13:55:38.635Z,80.26
2022-09-15T13:59:06.964Z,81.11
2022-09-15T14:02:12.183Z,81.81
2022-09-15T14:05:17.491Z,82.56
2022-09-15T14:08:26.771Z,82.68
2022-09-15T14:11:34.531Z,83.14
2022-09-15T14:14:44.776Z,83.79
2022-09-15T14:17:48.472Z,84.35
2022-09-15T14:21:04.344Z,84.82
2022-09-15T14:24:22.321Z,85.86
2022-09-15T14:27:29.015Z,85.77
2022-09-15T14:30:34.278Z,86.93
2022-09-15T14:33:41.869Z,87.64
2022-09-15T14:36:45.575Z,88.12
2022-09-15T14:39:54.860Z,89.01
2022-09-15T14:42:59.259Z,89.32
2022-09-15T14:46:14.050Z,89.76
2022-09-15T14:49:17.985Z,90.12
2022-09-15T14:52:29.998Z,90.26
2022-09-15T14:55:39.494Z,90.14
2022-09-15T14:58:49.603Z,90.46
2022-09-15T15:02:05.205Z,89.81
2022-09-15T15:05:18.983Z,89.75
2022-09-15T15:08:35.015Z,89.39
2022-09-15T15:11:42.407Z,89.23
2022-09-15T15:14:46.225Z,89.70
2022-09-15T15:17:54.926Z,89.33
2022-09-15T15:20:59.165Z,87.17
2022-09-15T15:24:09.845Z,86.39
2022-09-15T15:27:42.933Z,84.58
2022-09-15T15:30:48.466Z,83.61
2022-09-15T15:33:59.578Z,82.45
2022-09-15T15:37:17.606Z,81.84
2022-09-15T15:40:23.440Z,81.13
2022-09-15T15:43:28.848Z,80.87
2022-09-15T15:46:55.751Z,80.91
2022-09-15T15:50:13.564Z,81.16
2022-09-15T15:53:18.035Z,82.38
2022-09-15T15:56:26.329Z,83.12
2022-09-15T15:59:29.912Z,83.42
2022-09-15T16:02:33.525Z,83.86
2022-09-15T16:05:40.595Z,84.22
2022-09-15T16:08:46.611Z,84.40
2022-09-15T16:11:50.888Z,84.76
2022-09-15T16:14:54.564Z,85.02
2022-09-15T16:17:58.219Z,85.97
2022-09-15T16:21:03.220Z,87.40
2022-09-15T16:24:11.074Z,88.69
2022-09-15T16:27:18.604Z,89.32
2022-09-15T16:30:22.125Z,90.43
2022-09-15T16:33:26.675Z,91.43
2022-09-15T16:36:36.344Z,91.93
2022-09-15T16:39:39.980Z,92.41
2022-09-15T16:42:43.514Z,93.14
2022-09-15T16:45:47.886Z,93.58
2022-09-15T16:48:51.745Z,93.54
2022-09-15T16:51:56.882Z,93.92
2022-09-15T16:55:00.392Z,94.32
2022-09-15T16:58:04.699Z,94.35
2022-09-15T17:01:12.862Z,94.62
2022-09-15T17:04:19.134Z,94.42
2022-09-15T17:07:24.215Z,94.62
2022-09-15T17:10:28.246Z,94.57
2022-09-15T17:13:35.146Z,94.77
2022-09-15T17:16:39.487Z,94.84
2022-09-15T17:19:43.048Z,94.80
2022-09-15T17:22:49.047Z,94.95
2022-09-15T17:25:57.454Z,94.87
2022-09-15T17:29:01.132Z,95.10
2022-09-15T17:32:04.731Z,95.31
2022-09-15T17:35:20.191Z,95.39
2022-09-15T17:38:25.697Z,95.45
2022-09-15T17:41:34.086Z,95.73
2022-09-15T17:44:37.830Z,95.78
2022-09-15T17:47:41.453Z,96.13
2022-09-15T17:50:46.344Z,96.35
2022-09-15T17:53:51.301Z,96.64
2022-09-15T17:56:54.835Z,96.86
2022-09-15T17:59:58.382Z,97.15
2022-09-15T18:03:05.965Z,97.35
2022-09-15T18:06:11.678Z,97.47
2022-09-15T18:09:17.732Z,97.67
2022-09-15T18:12:21.436Z,97.87
2022-09-15T18:15:28.336Z,98.21
2022-09-15T18:18:31.881Z,98.27
2022-09-15T18:21:35.482Z,98.50
2022-09-15T18:24:40.619Z,98.78
2022-09-15T18:27:44.327Z,99.10
2022-09-15T18:30:50.700Z,99.12
2022-09-15T18:33:54.434Z,99.05
2022-09-15T18:36:59.853Z,99.35
2022-09-15T18:40:08.599Z,99.30
2022-09-15T18:43:12.196Z,99.49
2022-09-15T18:46:16.182Z,99.46
2022-09-15T18:49:19.751Z,99.43
2022-09-15T18:52:23.568Z,99.69
2022-09-15T18:55:28.926Z,99.68
2022-09-15T18:58:32.487Z,99.68
2022-09-15T19:01:36.203Z,99.62
2022-09-15T19:04:40.746Z,99.89
2022-09-15T19:07:45.601Z,100.00
2022-09-15T19:10:58.380Z,100.00
2022-09-15T19:14:02.442Z,100.00
2022-09-15T19:17:06.168Z,99.98
2022-09-15T19:20:13.247Z,100.00
2022-09-15T19:23:17.116Z,100.00
2022-09-15T19:26:22.645Z,99.97
2022-09-15T19:29:26.371Z,99.95
2022-09-15T19:32:30.287Z,99.85
2022-09-15T19:35:34.007Z,99.91
2022-09-15T19:38:38.323Z,99.93
2022-09-15T19:41:43.334Z,99.80
2022-09-15T19:44:47.883Z,99.55
2022-09-15T19:47:51.745Z,99.66
2022-09-15T19:50:55.474Z,99.55
2022-09-15T19:54:00.158Z,99.62
2022-09-15T19:57:05.687Z,99.27
2022-09-15T20:00:13.891Z,99.23
2022-09-15T20:03:17.406Z,99.09
2022-09-15T20:06:21.363Z,99.21
2022-09-15T20:09:24.984Z,98.98
2022-09-15T20:12:31.305Z,99.02
2022-09-15T20:15:34.892Z,99.06
2022-09-15T20:18:41.451Z,99.10
2022-09-15T20:21:51.349Z,98.92
2022-09-15T20:24:56.152Z,99.09
2022-09-15T20:28:01.015Z,99.18
2022-09-15T20:31:08.158Z,98.75
2022-09-15T20:34:11.827Z,99.00
2022-09-15T20:37:15.445Z,98.68
2022-09-15T20:40:19.192Z,98.91
2022-09-15T20:43:24.357Z,98.69
2022-09-15T20:46:29.163Z,98.66
2022-09-15T20:49:32.727Z,98.85
2022-09-15T20:52:38.490Z,99.19
2022-09-15T20:55:42.335Z,99.26
2022-09-15T20:58:47.299Z,99.24
2022-09-15T21:01:50.985Z,99.19
2022-09-15T21:04:55.405Z,99.11
2022-09-15T21:07:59.606Z,99.39
2022-09-15T21:11:05.214Z,99.35
2022-09-15T21:14:12.399Z,99.57
2022-09-15T21:17:16.575Z,99.64
2022-09-15T21:20:20.196Z,99.94
2022-09-15T21:23:23.970Z,99.82
2022-09-15T21:26:30.111Z,100.00
2022-09-15T21:29:35.171Z,100.00
2022-09-15T21:32:38.878Z,100.00
2022-09-15T21:35:42.401Z,100.00
2022-09-15T21:38:46.842Z,100.00
2022-09-15T21:41:50.822Z,100.00
2022-09-15T21:44:56.313Z,100.00
2022-09-15T21:47:59.943Z,100.00
2022-09-15T21:51:06.624Z,100.00
2022-09-15T21:54:11.119Z,100.00
2022-09-15T21:57:15.452Z,100.00
2022-09-15T22:00:20.567Z,100.00
2022-09-15T22:03:24.138Z,100.00
2022-09-15T22:06:32.093Z,100.00
2022-09-15T22:09:35.874Z,100.00
2022-09-15T22:12:39.421Z,100.00
2022-09-15T22:15:44.805Z,99.94
2022-09-15T22:18:49.023Z,100.00
2022-09-15T22:21:52.641Z,99.97
2022-09-15T22:24:56.157Z,99.88
2022-09-15T22:27:59.771Z,99.90
2022-09-15T22:31:09.224Z,99.47
2022-09-15T22:34:12.900Z,99.96
2022-09-15T22:37:16.430Z,99.95
2022-09-15T22:40:20.025Z,99.79
2022-09-15T22:43:23.762Z,99.79
2022-09-15T22:46:29.074Z,99.73
2022-09-15T22:49:32.645Z,99.90
2022-09-15T22:52:36.285Z,99.72
2022-09-15T22:55:39.995Z,99.45
2022-09-15T22:58:45.415Z,99.44
2022-09-15T23:01:50.440Z,99.74
2022-09-15T23:04:54.294Z,99.76
2022-09-15T23:07:57.907Z,99.60
2022-09-15T23:11:07.282Z,99.68
2022-09-15T23:14:16.444Z,99.54
2022-09-15T23:17:21.412Z,99.72
2022-09-15T23:20:25.148Z,99.68
2022-09-15T23:23:30.827Z,99.44
2022-09-15T23:26:34.595Z,99.82
2022-09-15T23:29:39.205Z,99.74
2022-09-15T23:32:44.320Z,99.94
2022-09-15T23:35:49.004Z,99.93
2022-09-15T23:38:52.526Z,99.35
2022-09-15T23:41:56.237Z,99.43
2022-09-15T23:44:59.781Z,99.90
2022-09-15T23:48:05.171Z,99.43
2022-09-15T23:51:08.932Z,99.74
2022-09-15T23:54:12.555Z,99.86
2022-09-15T23:57:16.084Z,99.57
